createdAt,value
2019-03-26T00:01:17.414Z,7.50
2019-03-26T00:04:05.584Z,7.50
2019-03-26T00:06:42.471Z,7.50
2019-03-26T00:09:24.024Z,7.50
2019-03-26T00:12:05.735Z,7.50
2019-03-26T00:14:47.569Z,7.40
2019-03-26T00:17:29.970Z,7.40
2019-03-26T00:20:11.524Z,7.30
2019-03-26T00:22:54.018Z,7.30
2019-03-26T00:25:35.741Z,7.20
2019-03-26T00:28:17.753Z,7.20
2019-03-26T00:30:59.783Z,7.20
2019-03-26T00:33:42.060Z,7.30
2019-03-26T00:36:24.358Z,7.30
2019-03-26T00:39:06.698Z,7.40
2019-03-26T00:41:48.606Z,7.50
2019-03-26T00:44:30.978Z,7.50
2019-03-26T00:47:12.989Z,7.50
2019-03-26T00:49:54.944Z,7.60
2019-03-26T00:55:35.472Z,7.50
2019-03-26T00:58:16.995Z,7.30
2019-03-26T01:00:59.321Z,7.50
2019-03-26T01:03:41.365Z,7.50
2019-03-26T01:06:23.337Z,7.40
2019-03-26T01:09:05.852Z,7.40
2019-03-26T01:11:55.371Z,7.40
2019-03-26T01:17:33.575Z,7.60
2019-03-26T01:20:23.180Z,7.40
2019-03-26T01:23:12.736Z,7.20
2019-03-26T01:26:02.257Z,7.30
2019-03-26T01:28:51.906Z,7.40
2019-03-26T01:31:41.466Z,7.50
2019-03-26T01:34:31.060Z,7.50
2019-03-26T01:37:20.682Z,7.40
2019-03-26T01:40:10.223Z,7.40
2019-03-26T01:42:59.768Z,7.50
2019-03-26T01:45:49.381Z,7.50
2019-03-26T01:48:39.018Z,7.30
2019-03-26T01:51:28.583Z,7.30
2019-03-26T01:54:18.146Z,7.30
2019-03-26T01:57:07.952Z,7.40
2019-03-26T01:59:49.772Z,7.50
2019-03-26T02:02:32.113Z,7.40
2019-03-26T02:05:13.672Z,7.10
2019-03-26T02:07:55.898Z,7.10
2019-03-26T02:10:37.359Z,7.20
2019-03-26T02:13:19.286Z,7.20
2019-03-26T02:15:59.969Z,7.20
2019-03-26T02:18:49.512Z,7.30
2019-03-26T02:21:39.145Z,7.40
2019-03-26T02:24:28.766Z,7.40
2019-03-26T02:27:18.314Z,7.40
2019-03-26T02:30:07.932Z,7.40
2019-03-26T02:32:57.505Z,7.40
2019-03-26T02:35:47.059Z,7.50
2019-03-26T02:38:36.678Z,7.50
2019-03-26T02:41:26.205Z,7.50
2019-03-26T02:44:15.765Z,7.30
2019-03-26T02:47:05.405Z,7.10
2019-03-26T02:49:54.928Z,7.10
2019-03-26T02:52:44.558Z,7.10
2019-03-26T02:55:26.522Z,7.10
2019-03-26T02:58:08.764Z,7.10
2019-03-26T03:00:50.233Z,7.10
2019-03-26T03:03:32.324Z,7.20
2019-03-26T03:06:14.432Z,7.10
2019-03-26T03:08:55.993Z,7.10
2019-03-26T03:11:37.523Z,7.00
2019-03-26T03:14:19.827Z,6.90
2019-03-26T03:17:02.113Z,6.90
2019-03-26T03:19:44.132Z,7.00
2019-03-26T03:22:26.350Z,7.00
2019-03-26T03:25:07.909Z,6.80
2019-03-26T03:27:50.073Z,6.90
2019-03-26T03:30:32.538Z,6.80
2019-03-26T03:33:14.317Z,6.90
2019-03-26T03:35:56.663Z,6.70
2019-03-26T03:38:41.386Z,6.90
2019-03-26T03:41:22.915Z,6.80
2019-03-26T03:44:03.581Z,6.90
2019-03-26T03:56:46.328Z,6.80
2019-03-26T03:59:35.857Z,6.80
2019-03-26T04:02:25.481Z,6.30
2019-03-26T04:05:15.101Z,6.40
2019-03-26T04:08:04.761Z,6.30
2019-03-26T04:10:54.353Z,6.40
2019-03-26T04:13:43.909Z,6.60
2019-03-26T04:16:33.514Z,6.70
2019-03-26T04:19:23.164Z,6.70
2019-03-26T04:22:12.784Z,6.50
2019-03-26T04:25:02.460Z,6.70
2019-03-26T04:27:52.131Z,6.80
2019-03-26T04:30:41.701Z,7.00
2019-03-26T04:33:31.337Z,7.00
2019-03-26T04:36:26.113Z,7.00
2019-03-26T04:39:31.698Z,7.10
2019-03-26T04:45:01.823Z,7.10
2019-03-26T04:47:43.279Z,6.90
2019-03-26T04:50:24.732Z,6.90
2019-03-26T04:53:07.225Z,6.90
2019-03-26T04:55:49.236Z,6.90
2019-03-26T04:58:31.197Z,6.90
2019-03-26T05:01:11.965Z,7.00
2019-03-26T05:04:01.577Z,6.80
2019-03-26T05:06:51.146Z,6.90
2019-03-26T05:09:40.769Z,6.90
2019-03-26T05:12:30.287Z,6.70
2019-03-26T05:15:19.844Z,6.80
2019-03-26T05:18:01.859Z,6.90
2019-03-26T05:20:43.833Z,7.00
2019-03-26T05:23:26.209Z,7.10
2019-03-26T05:26:08.646Z,6.90
2019-03-26T05:28:50.388Z,7.00
2019-03-26T05:31:32.839Z,7.10
2019-03-26T05:34:14.679Z,7.10
2019-03-26T05:36:56.247Z,7.30
2019-03-26T05:39:38.105Z,7.20
2019-03-26T05:42:20.634Z,7.20
2019-03-26T05:45:02.810Z,7.30
2019-03-26T05:47:44.709Z,7.20
2019-03-26T05:50:26.264Z,7.30
2019-03-26T05:53:08.430Z,7.30
2019-03-26T05:55:50.288Z,7.40
2019-03-26T05:58:32.517Z,7.40
2019-03-26T06:01:14.676Z,7.40
2019-03-26T06:03:56.428Z,7.40
2019-03-26T06:06:39.572Z,7.40
2019-03-26T06:09:22.853Z,7.50
2019-03-26T06:12:06.721Z,7.40
2019-03-26T06:14:50.368Z,7.40
2019-03-26T06:17:33.565Z,7.50
2019-03-26T06:20:17.257Z,7.50
2019-03-26T06:22:59.165Z,7.60
2019-03-26T06:25:41.395Z,7.50
2019-03-26T06:28:23.818Z,7.60
2019-03-26T06:31:05.453Z,7.70
2019-03-26T06:33:47.250Z,7.70
2019-03-26T06:36:28.998Z,7.60
2019-03-26T06:39:11.409Z,7.50
2019-03-26T06:41:53.470Z,7.40
2019-03-26T06:44:35.232Z,7.40
2019-03-26T06:47:17.437Z,7.30
2019-03-26T06:49:59.338Z,7.40
2019-03-26T06:52:41.135Z,7.30
2019-03-26T06:55:23.408Z,7.40
2019-03-26T06:58:07.150Z,7.50
2019-03-26T07:00:49.585Z,7.50
2019-03-26T07:03:31.682Z,7.40
2019-03-26T07:06:13.641Z,7.50
2019-03-26T07:08:55.855Z,7.60
2019-03-26T07:15:11.361Z,8.80
2019-03-26T07:17:53.590Z,8.80
2019-03-26T07:20:35.679Z,8.40
2019-03-26T07:23:17.990Z,8.10
2019-03-26T07:25:59.981Z,8.00
2019-03-26T07:28:41.706Z,7.80
2019-03-26T07:31:23.680Z,7.80
2019-03-26T07:34:07.206Z,7.60
2019-03-26T07:36:49.214Z,7.60
2019-03-26T07:39:31.313Z,7.70
2019-03-26T07:42:13.522Z,7.70
2019-03-26T07:44:55.765Z,7.80
2019-03-26T07:47:37.981Z,7.90
2019-03-26T07:50:19.532Z,7.90
2019-03-26T07:53:01.435Z,8.00
2019-03-26T07:55:43.945Z,7.90
2019-03-26T07:58:26.228Z,7.80
2019-03-26T08:01:08.800Z,7.90
2019-03-26T08:03:51.074Z,8.00
2019-03-26T08:10:05.593Z,7.80
2019-03-26T08:12:48.056Z,8.00
2019-03-26T08:15:29.844Z,8.10
2019-03-26T08:18:11.880Z,8.00
2019-03-26T08:20:57.154Z,8.10
2019-03-26T08:23:38.632Z,8.20
2019-03-26T08:26:20.368Z,8.20
2019-03-26T08:29:02.089Z,8.20
2019-03-26T08:31:44.404Z,8.10
2019-03-26T08:34:26.614Z,8.00
2019-03-26T08:37:08.591Z,8.00
2019-03-26T08:39:49.304Z,8.10
2019-03-26T08:42:38.914Z,8.10
2019-03-26T08:45:28.602Z,8.10
2019-03-26T08:48:18.221Z,8.30
2019-03-26T08:51:07.876Z,8.40
2019-03-26T08:53:57.505Z,8.50
2019-03-26T08:56:47.158Z,8.50
2019-03-26T08:59:36.704Z,8.60
2019-03-26T09:02:26.404Z,8.70
2019-03-26T09:05:34.944Z,8.80
2019-03-26T09:08:25.741Z,8.60
2019-03-26T09:11:35.388Z,8.50
2019-03-26T09:14:25.040Z,8.80
2019-03-26T09:17:14.714Z,9.00
2019-03-26T09:20:05.048Z,9.10
2019-03-26T09:22:54.662Z,9.20
2019-03-26T09:25:44.324Z,9.10
2019-03-26T09:28:25.984Z,8.60
2019-03-26T09:31:08.422Z,9.00
2019-03-26T09:33:50.212Z,9.20
2019-03-26T09:36:31.765Z,9.50
2019-03-26T09:39:13.401Z,9.80
2019-03-26T09:41:55.562Z,9.90
2019-03-26T09:44:37.515Z,9.90
2019-03-26T09:47:19.364Z,9.70
2019-03-26T09:56:33.401Z,9.50
2019-03-26T09:59:15.566Z,9.30
2019-03-26T10:01:58.042Z,9.20
2019-03-26T10:04:40.255Z,9.20
2019-03-26T10:07:22.374Z,9.10
2019-03-26T10:10:04.366Z,9.10
2019-03-26T10:12:46.425Z,8.90
2019-03-26T10:15:28.477Z,8.90
2019-03-26T10:18:10.187Z,9.00
2019-03-26T10:20:52.237Z,9.00
2019-03-26T10:23:34.187Z,9.20
2019-03-26T10:26:16.389Z,9.30
2019-03-26T10:28:58.620Z,9.30
2019-03-26T10:31:40.485Z,9.40
2019-03-26T10:34:22.115Z,9.30
2019-03-26T10:37:03.645Z,9.50
2019-03-26T10:39:45.223Z,9.70
2019-03-26T10:42:27.624Z,9.80
2019-03-26T10:45:10.413Z,9.90
2019-03-26T10:47:51.923Z,9.60
2019-03-26T10:50:34.291Z,9.60
2019-03-26T10:53:16.702Z,9.70
2019-03-26T10:55:58.693Z,10.10
2019-03-26T10:58:40.466Z,10.30
2019-03-26T11:01:22.642Z,10.40
2019-03-26T11:04:07.574Z,10.10
2019-03-26T11:06:48.571Z,10.10
2019-03-26T11:09:30.440Z,10.20
2019-03-26T11:12:12.885Z,10.30
2019-03-26T11:14:55.066Z,10.10
2019-03-26T11:17:36.968Z,10.10
2019-03-26T11:20:19.153Z,10.20
2019-03-26T11:23:01.251Z,10.30
2019-03-26T11:25:43.396Z,10.40
2019-03-26T11:31:24.435Z,10.60
2019-03-26T11:34:07.688Z,10.80
2019-03-26T11:36:49.958Z,10.80
2019-03-26T11:39:33.198Z,10.90
2019-03-26T11:42:15.676Z,10.80
2019-03-26T11:44:46.526Z,10.90
2019-03-26T11:47:36.144Z,10.90
2019-03-26T11:50:25.815Z,11.00
2019-03-26T11:53:15.398Z,11.00
2019-03-26T11:56:05.104Z,10.90
2019-03-26T11:58:54.755Z,11.20
2019-03-26T12:01:44.402Z,11.80
2019-03-26T12:04:34.093Z,11.60
2019-03-26T12:07:23.708Z,11.30
2019-03-26T12:10:32.835Z,11.30
2019-03-26T12:13:22.495Z,11.30
2019-03-26T12:16:12.129Z,11.30
2019-03-26T12:21:50.309Z,11.50
2019-03-26T12:24:39.880Z,11.40
2019-03-26T12:27:29.488Z,11.60
2019-03-26T12:34:05.113Z,11.70
2019-03-26T12:36:47.168Z,11.40
2019-03-26T12:39:29.232Z,11.50
2019-03-26T12:42:10.811Z,11.40
2019-03-26T12:44:52.733Z,11.50
2019-03-26T12:47:35.136Z,11.40
2019-03-26T12:50:17.593Z,11.10
2019-03-26T12:52:59.661Z,11.10
2019-03-26T12:55:41.803Z,10.90
2019-03-26T12:58:31.899Z,10.70
2019-03-26T13:01:08.061Z,10.80
2019-03-26T13:03:50.146Z,11.10
2019-03-26T13:06:31.870Z,11.20
2019-03-26T13:09:14.169Z,11.50
2019-03-26T13:11:56.286Z,11.70
2019-03-26T13:17:37.873Z,11.20
2019-03-26T13:20:19.968Z,11.10
2019-03-26T13:23:02.057Z,11.00
2019-03-26T13:25:43.970Z,10.90
2019-03-26T13:28:25.893Z,11.00
2019-03-26T13:31:07.835Z,11.10
2019-03-26T13:33:50.093Z,11.20
2019-03-26T13:36:32.448Z,11.30
2019-03-26T13:39:14.107Z,11.30
2019-03-26T13:41:55.705Z,11.40
2019-03-26T13:44:38.087Z,11.60
2019-03-26T13:47:19.917Z,11.50
2019-03-26T13:50:02.394Z,11.40
2019-03-26T13:52:43.977Z,11.60
2019-03-26T13:55:26.091Z,11.60
2019-03-26T13:58:08.167Z,11.50
2019-03-26T14:00:49.739Z,11.80
2019-03-26T14:03:31.957Z,12.20
2019-03-26T14:06:13.853Z,12.10
2019-03-26T14:08:55.913Z,12.20
2019-03-26T14:11:38.176Z,12.50
2019-03-26T14:14:20.053Z,12.50
2019-03-26T14:17:01.837Z,12.50
2019-03-26T14:22:44.027Z,12.10
2019-03-26T14:25:26.265Z,11.90
2019-03-26T14:28:08.509Z,11.80
2019-03-26T14:30:50.072Z,11.80
2019-03-26T14:33:32.277Z,11.60
2019-03-26T14:36:14.614Z,11.50
2019-03-26T14:38:56.588Z,11.80
2019-03-26T14:41:38.966Z,11.90
2019-03-26T14:44:20.827Z,12.00
2019-03-26T14:47:03.090Z,12.20
2019-03-26T14:49:44.819Z,12.40
2019-03-26T14:52:26.389Z,12.50
2019-03-26T14:55:08.369Z,12.40
2019-03-26T14:57:50.719Z,12.10
2019-03-26T15:00:32.937Z,12.00
2019-03-26T15:03:14.770Z,12.20
2019-03-26T15:05:56.717Z,12.20
2019-03-26T15:08:39.265Z,12.20
2019-03-26T15:11:21.073Z,12.30
2019-03-26T15:14:03.217Z,12.20
2019-03-26T15:16:45.296Z,12.00
2019-03-26T15:19:27.215Z,11.80
2019-03-26T15:22:09.181Z,11.80
2019-03-26T15:24:51.497Z,11.70
2019-03-26T15:27:33.425Z,11.70
2019-03-26T15:30:15.640Z,11.40
2019-03-26T15:32:58.025Z,11.20
2019-03-26T15:35:40.074Z,11.10
2019-03-26T15:38:22.401Z,11.20
2019-03-26T15:44:03.929Z,11.30
2019-03-26T15:46:45.773Z,11.10
2019-03-26T15:49:27.471Z,10.90
2019-03-26T15:52:09.321Z,10.60
2019-03-26T15:54:40.169Z,10.60
2019-03-26T15:57:29.760Z,10.50
2019-03-26T16:03:55.130Z,10.50
2019-03-26T16:06:44.741Z,10.30
2019-03-26T16:09:34.301Z,10.20
2019-03-26T16:12:23.875Z,10.30
2019-03-26T16:15:13.425Z,10.20
2019-03-26T16:18:03.074Z,10.20
2019-03-26T16:20:45.234Z,10.30
2019-03-26T16:23:27.146Z,10.30
2019-03-26T16:26:10.279Z,10.30
2019-03-26T16:28:53.505Z,10.20
2019-03-26T16:31:35.902Z,10.30
2019-03-26T16:34:17.890Z,10.20
2019-03-26T16:37:00.332Z,10.20
2019-03-26T16:39:42.074Z,10.10
2019-03-26T16:42:23.782Z,10.00
2019-03-26T16:45:06.185Z,9.90
2019-03-26T16:47:48.129Z,10.00
2019-03-26T16:50:30.354Z,9.80
2019-03-26T16:53:12.554Z,9.70
2019-03-26T16:55:54.100Z,9.70
2019-03-26T16:58:36.280Z,9.70
2019-03-26T17:04:16.917Z,9.60
2019-03-26T17:06:58.534Z,9.60
2019-03-26T17:09:40.948Z,9.60
2019-03-26T17:12:22.952Z,9.60
2019-03-26T17:15:05.018Z,9.60
2019-03-26T17:17:47.326Z,9.60
2019-03-26T17:20:29.868Z,9.70
2019-03-26T17:23:11.969Z,9.70
2019-03-26T17:25:53.901Z,9.80
2019-03-26T17:28:36.071Z,9.70
2019-03-26T17:31:18.470Z,9.60
2019-03-26T17:34:00.605Z,9.50
2019-03-26T17:36:42.594Z,9.60
2019-03-26T17:39:24.601Z,9.50
2019-03-26T17:45:10.725Z,9.30
2019-03-26T17:47:52.718Z,9.30
2019-03-26T17:50:35.058Z,9.40
2019-03-26T17:53:17.099Z,9.50
2019-03-26T17:55:59.166Z,9.50
2019-03-26T17:58:40.752Z,9.50
2019-03-26T18:01:23.283Z,9.50
2019-03-26T18:04:05.361Z,9.50
2019-03-26T18:06:47.358Z,9.50
2019-03-26T18:09:29.272Z,9.60
2019-03-26T18:12:12.224Z,9.60
2019-03-26T18:14:54.260Z,9.60
2019-03-26T18:17:36.474Z,9.60
2019-03-26T18:20:31.792Z,9.60
2019-03-26T18:23:03.350Z,9.60
2019-03-26T18:25:45.655Z,9.70
2019-03-26T18:28:27.591Z,9.70
2019-03-26T18:31:09.529Z,9.60
2019-03-26T18:33:51.326Z,9.60
2019-03-26T18:36:33.215Z,9.40
2019-03-26T18:39:15.529Z,9.50
2019-03-26T18:41:57.506Z,9.60
2019-03-26T18:44:39.866Z,9.60
2019-03-26T18:47:22.234Z,9.60
2019-03-26T18:50:04.021Z,9.60
2019-03-26T18:52:46.338Z,9.50
2019-03-26T18:55:27.943Z,9.50
2019-03-26T18:58:10.079Z,9.60
2019-03-26T19:00:52.228Z,9.60
2019-03-26T19:03:34.341Z,9.50
2019-03-26T19:06:16.549Z,9.40
2019-03-26T19:08:58.573Z,9.40
2019-03-26T19:11:40.831Z,9.50
2019-03-26T19:14:22.622Z,9.60
2019-03-26T19:17:04.744Z,9.50
2019-03-26T19:19:47.148Z,9.50
2019-03-26T19:22:28.836Z,9.50
2019-03-26T19:28:32.234Z,9.50
2019-03-26T19:31:21.938Z,9.50
2019-03-26T19:34:11.555Z,9.60
2019-03-26T19:37:01.241Z,9.40
2019-03-26T19:39:50.931Z,9.50
2019-03-26T19:43:10.106Z,9.60
2019-03-26T19:46:02.736Z,9.50
2019-03-26T19:48:33.675Z,9.50
2019-03-26T19:51:04.533Z,9.50
2019-03-26T19:53:35.418Z,9.50
2019-03-26T19:56:06.257Z,9.40
2019-03-26T19:58:37.177Z,9.40
2019-03-26T20:01:08.063Z,9.40
2019-03-26T20:03:38.996Z,9.40
2019-03-26T20:06:13.681Z,9.40
2019-03-26T20:08:42.416Z,9.20
2019-03-26T20:11:15.275Z,9.30
2019-03-26T20:13:45.867Z,9.40
2019-03-26T20:16:16.709Z,9.40
2019-03-26T20:18:47.596Z,9.40
2019-03-26T20:21:18.585Z,9.40
2019-03-26T20:23:49.448Z,9.40
2019-03-26T20:26:20.243Z,9.40
2019-03-26T20:28:51.119Z,9.40
2019-03-26T20:31:21.967Z,9.40
2019-03-26T20:33:52.825Z,9.40
2019-03-26T20:36:23.746Z,9.40
2019-03-26T20:38:54.615Z,9.40
2019-03-26T20:41:25.551Z,9.40
2019-03-26T20:43:56.537Z,9.50
2019-03-26T20:46:27.327Z,9.20
2019-03-26T20:48:58.219Z,9.30
2019-03-26T20:51:29.086Z,9.30
2019-03-26T20:53:59.975Z,9.30
2019-03-26T20:56:31.251Z,9.40
2019-03-26T20:59:02.318Z,9.50
2019-03-26T21:01:33.132Z,9.40
2019-03-26T21:04:04.084Z,9.50
2019-03-26T21:06:34.952Z,9.40
2019-03-26T21:09:07.401Z,9.30
2019-03-26T21:11:38.176Z,9.30
2019-03-26T21:14:08.946Z,9.30
2019-03-26T21:16:39.790Z,9.30
2019-03-26T21:19:10.666Z,9.20
2019-03-26T21:21:41.529Z,9.30
2019-03-26T21:24:12.391Z,9.20
2019-03-26T21:26:43.261Z,9.10
2019-03-26T21:29:14.157Z,9.20
2019-03-26T21:31:44.952Z,9.20
2019-03-26T21:34:29.669Z,9.10
2019-03-26T21:36:48.512Z,9.10
2019-03-26T21:39:19.321Z,9.30
2019-03-26T21:41:50.083Z,9.20
2019-03-26T21:44:20.987Z,9.20
2019-03-26T21:46:51.801Z,9.30
2019-03-26T21:49:22.625Z,9.30
2019-03-26T21:51:53.493Z,9.20
2019-03-26T21:54:24.380Z,9.30
2019-03-26T21:56:56.423Z,9.30
2019-03-26T21:59:28.029Z,9.40
2019-03-26T22:01:59.716Z,9.40
2019-03-26T22:04:30.994Z,9.50
2019-03-26T22:07:01.792Z,9.50
2019-03-26T22:09:33.652Z,9.40
2019-03-26T22:12:04.458Z,9.40
2019-03-26T22:14:35.303Z,9.40
2019-03-26T22:17:06.128Z,9.40
2019-03-26T22:19:36.968Z,9.50
2019-03-26T22:22:07.744Z,9.50
2019-03-26T22:24:38.498Z,9.50
2019-03-26T22:27:09.245Z,9.40
2019-03-26T22:29:39.997Z,9.20
2019-03-26T22:32:10.765Z,9.20
2019-03-26T22:34:41.581Z,9.20
2019-03-26T22:37:13.617Z,9.20
2019-03-26T22:39:44.571Z,9.00
2019-03-26T22:42:15.404Z,9.20
2019-03-26T22:44:46.258Z,9.20
2019-03-26T22:47:17.662Z,9.30
2019-03-26T22:49:48.530Z,9.10
2019-03-26T22:52:19.268Z,9.10
2019-03-26T22:54:51.129Z,9.00
2019-03-26T22:57:21.996Z,9.10
2019-03-26T22:59:54.007Z,9.20
2019-03-26T23:02:25.862Z,9.10
2019-03-26T23:04:57.497Z,9.10
2019-03-26T23:07:29.502Z,8.90
2019-03-26T23:10:00.398Z,8.90
2019-03-26T23:12:31.309Z,9.10
2019-03-26T23:15:02.059Z,9.10
2019-03-26T23:17:32.880Z,9.20
2019-03-26T23:20:03.704Z,9.20
2019-03-26T23:22:34.451Z,9.10
2019-03-26T23:25:05.310Z,9.10
2019-03-26T23:27:36.123Z,9.20
2019-03-26T23:30:07.619Z,9.30
2019-03-26T23:32:38.357Z,9.30
2019-03-26T23:35:09.232Z,9.20
2019-03-26T23:37:39.963Z,9.20
2019-03-26T23:40:11.204Z,9.30
2019-03-26T23:42:41.952Z,9.30
2019-03-26T23:45:13.157Z,9.20
2019-03-26T23:47:43.975Z,9.20
2019-03-26T23:50:14.917Z,9.30
2019-03-26T23:52:45.720Z,9.30
2019-03-26T23:55:16.555Z,9.30
2019-03-26T23:57:47.357Z,9.30
